METAR Data
IDs: Format: Raw Decoded Include TAF

Data at: 0202 UTC 10 Dec 2022

METAR for:KLUK (Cincinnati/Lunken Ar, OH, US)
Text:KLUK 100153Z 01003KT 5SM BR OVC013 09/07 A3014 RMK AO2 SLP207 T00890072
Temperature: 8.9°C ( 48°F)
Dewpoint: 7.2°C ( 45°F) [RH = 89%]
Pressure (altimeter):30.14 inches Hg (1020.7 mb) [Sea level pressure: 1020.7 mb]
Winds:from the N (10 degrees) at 3 MPH (3 knots; 1.5 m/s)
Visibility: 5 sm ( 8 km)
Ceiling:1300 feet AGL
Clouds: overcast cloud deck at 1300 feet AGL
Weather:BR (mist)